Barranquilla, Colombia

6:46 PM COT en Septiembre 02, 2014 (GMT -0500)
Rafael Nunez | Change Station
CLOSE
Current Station
Aeropuerto
Location: Cartagena,
Altura: 39 ft
Estaciones meteorológicas cercanas

Alt 39 ft 10.45 °N, 75.52 °W | Updated 6 minutes ago

Thunderstorms and Rain
Tormenta
75 ° F
Sensación térmica 75 ° F
N
17
Viento Variable Viento desde SSO

Hoy
Alta -- | Baja -- ° F
--% Posibilidad de precipitaciones
Ayer
Alta -- | Baja -- ° F
Precip. -- pul
5:49 AM 6:08 PM
Cuarto creciente, 56% visible
Presión 29.82 pul
Visibilidad 3.1 Millas
Nubes Muy nublado 1000 ft
Punto de rocío 73 ° F
Humedad 94%
Precipitaciones 0.00 pul
Espesor de la nieve No disponible.
UV 0 de una escala de 12
Polen No disponible.
Calidad del aire No disponible.
Flu Activity No disponible.
SPECI SKCG 022340Z 21015KT 5000 TSRA BKN010CB 24/23 A2982 RMK AD OPER IMC

More Conditions Fewer Conditions

Presión 29.82 pul
Visibilidad 3.1 Millas
Nubes Muy nublado 1000 ft
Punto de rocío 73 ° F
Humedad 94%
Precipitaciones 0.00 pul
Espesor de la nieve No disponible.
UV 0 de una escala de 12
Polen No disponible.
Calidad del aire No disponible.
Flu Activity No disponible.
SPECI SKCG 022340Z 21015KT 5000 TSRA BKN010CB 24/23 A2982 RMK AD OPER IMC

More Conditions Fewer Conditions

10-Day Weather Forecast

Almanac

Astronomía

Sep. 02, 2014 Salida Puesta
Hora real 5:49 AM COT 6:08 PM COT
Crepúsculo civil 5:28 AM COT 6:29 PM COT
Crepúsculo náutico 5:03 AM COT 6:54 PM COT
Crepúsculo astronómico 4:38 AM COT 7:18 PM COT
Luna 12:17 PM COT Sin puesta de luna
Horas de luz 13h 01m
Horas de luz
12h 18m
Tomorrow will be 0m 35s shorter.
Cuarto creciente, 56% of the Moon is Illuminated
Hoy
Cuarto creciente
Sep 8
Luna llena
Sep 15
Cuarto menguante
Sep 24
Nueva
Oct 1
Cuarto creciente

Extremos de hoy

Máximos del país Bajas del país

Community

WunderPhotos

Upload Photos

1,749,799 ¡fotos cargadas!

Nearby

Calidad del aire

Not available.

Grosos de nieve

Not available.

Actividad de terremotos

Ciudad Distance Mag. Tiempo y dato
No hay informes recientes de la actividad sísmica.
Magnitud mínima muestra es 2,5.

Temperaturas de aguas costeras

Lugar Temperatura
Sin partes meteorológicos de las estaciones

Estaciones meteorológicas cercanas